sensor_id;sensor_type;location;lat;lon;timestamp;temperature;humidity
48589;DHT22;34369;51.174;6.738;2024-03-02T00:00:37;7.70;55.90
48589;DHT22;34369;51.174;6.738;2024-03-02T00:03:13;7.70;56.00
48589;DHT22;34369;51.174;6.738;2024-03-02T00:05:49;7.70;56.00
48589;DHT22;34369;51.174;6.738;2024-03-02T00:08:25;7.70;56.20
48589;DHT22;34369;51.174;6.738;2024-03-02T00:10:58;7.80;56.10
48589;DHT22;34369;51.174;6.738;2024-03-02T00:13:31;7.80;56.30
48589;DHT22;34369;51.174;6.738;2024-03-02T00:16:06;7.80;56.20
48589;DHT22;34369;51.174;6.738;2024-03-02T00:18:38;7.80;56.20
48589;DHT22;34369;51.174;6.738;2024-03-02T00:21:13;7.80;56.20
48589;DHT22;34369;51.174;6.738;2024-03-02T00:23:50;7.80;56.30
48589;DHT22;34369;51.174;6.738;2024-03-02T00:26:23;7.80;56.30
48589;DHT22;34369;51.174;6.738;2024-03-02T00:28:56;7.80;56.20
48589;DHT22;34369;51.174;6.738;2024-03-02T00:31:29;7.90;56.30
48589;DHT22;34369;51.174;6.738;2024-03-02T00:34:05;7.90;56.40
48589;DHT22;34369;51.174;6.738;2024-03-02T00:36:38;7.90;56.40
48589;DHT22;34369;51.174;6.738;2024-03-02T00:39:13;7.90;56.40
48589;DHT22;34369;51.174;6.738;2024-03-02T00:41:47;8.00;56.30
48589;DHT22;34369;51.174;6.738;2024-03-02T00:44:22;8.00;56.20
48589;DHT22;34369;51.174;6.738;2024-03-02T00:46:58;8.00;56.30
48589;DHT22;34369;51.174;6.738;2024-03-02T00:49:31;8.00;56.20
48589;DHT22;34369;51.174;6.738;2024-03-02T00:52:03;8.00;56.20
48589;DHT22;34369;51.174;6.738;2024-03-02T00:54:42;8.10;56.20
48589;DHT22;34369;51.174;6.738;2024-03-02T00:57:15;8.10;56.20
48589;DHT22;34369;51.174;6.738;2024-03-02T00:59:50;8.10;56.20
48589;DHT22;34369;51.174;6.738;2024-03-02T01:02:23;8.10;56.00
48589;DHT22;34369;51.174;6.738;2024-03-02T01:04:55;8.20;55.90
48589;DHT22;34369;51.174;6.738;2024-03-02T01:07:29;8.10;55.90
48589;DHT22;34369;51.174;6.738;2024-03-02T01:10:03;8.10;55.80
48589;DHT22;34369;51.174;6.738;2024-03-02T01:12:35;8.20;55.80
48589;DHT22;34369;51.174;6.738;2024-03-02T01:15:08;8.10;55.80
48589;DHT22;34369;51.174;6.738;2024-03-02T01:17:41;8.10;55.80
48589;DHT22;34369;51.174;6.738;2024-03-02T01:20:13;8.10;55.70
48589;DHT22;34369;51.174;6.738;2024-03-02T01:22:46;8.10;55.70
48589;DHT22;34369;51.174;6.738;2024-03-02T01:25:20;8.10;55.70
48589;DHT22;34369;51.174;6.738;2024-03-02T01:27:52;8.10;55.80
48589;DHT22;34369;51.174;6.738;2024-03-02T01:30:24;8.10;55.80
48589;DHT22;34369;51.174;6.738;2024-03-02T01:32:57;8.00;55.80
48589;DHT22;34369;51.174;6.738;2024-03-02T01:35:31;8.00;55.80
48589;DHT22;34369;51.174;6.738;2024-03-02T01:38:03;8.00;55.80
48589;DHT22;34369;51.174;6.738;2024-03-02T01:40:38;8.00;55.80
48589;DHT22;34369;51.174;6.738;2024-03-02T01:43:15;8.00;55.80
48589;DHT22;34369;51.174;6.738;2024-03-02T01:45:47;8.00;55.80
48589;DHT22;34369;51.174;6.738;2024-03-02T01:48:19;7.90;55.90
48589;DHT22;34369;51.174;6.738;2024-03-02T01:50:51;7.90;55.90
48589;DHT22;34369;51.174;6.738;2024-03-02T01:53:23;7.90;55.90
48589;DHT22;34369;51.174;6.738;2024-03-02T01:55:59;7.90;55.90
48589;DHT22;34369;51.174;6.738;2024-03-02T01:58:32;7.90;55.90
48589;DHT22;34369;51.174;6.738;2024-03-02T02:01:04;7.90;56.00
48589;DHT22;34369;51.174;6.738;2024-03-02T02:03:38;7.90;56.00
48589;DHT22;34369;51.174;6.738;2024-03-02T02:06:11;7.90;56.10
48589;DHT22;34369;51.174;6.738;2024-03-02T02:08:43;7.90;56.10
48589;DHT22;34369;51.174;6.738;2024-03-02T02:11:22;7.90;56.10
48589;DHT22;34369;51.174;6.738;2024-03-02T02:13:55;7.90;56.20
48589;DHT22;34369;51.174;6.738;2024-03-02T02:16:27;7.90;56.20
48589;DHT22;34369;51.174;6.738;2024-03-02T02:18:59;7.90;56.20
48589;DHT22;34369;51.174;6.738;2024-03-02T02:21:33;7.90;56.20
48589;DHT22;34369;51.174;6.738;2024-03-02T02:24:05;7.90;56.20
48589;DHT22;34369;51.174;6.738;2024-03-02T02:26:37;7.90;56.20
48589;DHT22;34369;51.174;6.738;2024-03-02T02:29:09;7.90;56.30
48589;DHT22;34369;51.174;6.738;2024-03-02T02:31:42;7.90;56.40
48589;DHT22;34369;51.174;6.738;2024-03-02T02:34:14;7.90;56.30
48589;DHT22;34369;51.174;6.738;2024-03-02T02:36:48;7.90;56.40
48589;DHT22;34369;51.174;6.738;2024-03-02T02:39:21;7.90;56.50
48589;DHT22;34369;51.174;6.738;2024-03-02T02:41:54;7.90;56.50
48589;DHT22;34369;51.174;6.738;2024-03-02T02:44:26;8.00;56.40
48589;DHT22;34369;51.174;6.738;2024-03-02T02:46:58;8.00;56.40
48589;DHT22;34369;51.174;6.738;2024-03-02T02:49:31;8.00;56.40
48589;DHT22;34369;51.174;6.738;2024-03-02T02:52:07;8.00;56.40
48589;DHT22;34369;51.174;6.738;2024-03-02T02:54:40;8.00;56.50
48589;DHT22;34369;51.174;6.738;2024-03-02T02:57:12;8.10;56.50
48589;DHT22;34369;51.174;6.738;2024-03-02T02:59:44;8.00;56.40
48589;DHT22;34369;51.174;6.738;2024-03-02T03:02:16;8.10;56.30
48589;DHT22;34369;51.174;6.738;2024-03-02T03:04:49;8.10;56.20
48589;DHT22;34369;51.174;6.738;2024-03-02T03:07:22;8.10;56.40
48589;DHT22;34369;51.174;6.738;2024-03-02T03:09:55;8.10;56.40
48589;DHT22;34369;51.174;6.738;2024-03-02T03:12:29;8.10;56.30
48589;DHT22;34369;51.174;6.738;2024-03-02T03:15:02;8.10;56.40
48589;DHT22;34369;51.174;6.738;2024-03-02T03:17:37;8.10;56.30
48589;DHT22;34369;51.174;6.738;2024-03-02T03:20:09;8.10;56.30
48589;DHT22;34369;51.174;6.738;2024-03-02T03:22:43;8.10;56.40
48589;DHT22;34369;51.174;6.738;2024-03-02T03:25:15;8.10;56.40
48589;DHT22;34369;51.174;6.738;2024-03-02T03:27:47;8.10;56.40
48589;DHT22;34369;51.174;6.738;2024-03-02T03:30:21;8.10;56.40
48589;DHT22;34369;51.174;6.738;2024-03-02T03:32:54;8.10;56.30
48589;DHT22;34369;51.174;6.738;2024-03-02T03:35:26;8.10;56.40
48589;DHT22;34369;51.174;6.738;2024-03-02T03:38:00;8.10;56.50
48589;DHT22;34369;51.174;6.738;2024-03-02T03:40:32;8.00;56.50
48589;DHT22;34369;51.174;6.738;2024-03-02T03:43:05;8.00;56.60
48589;DHT22;34369;51.174;6.738;2024-03-02T03:45:37;8.00;56.60
48589;DHT22;34369;51.174;6.738;2024-03-02T03:48:10;8.00;56.60
48589;DHT22;34369;51.174;6.738;2024-03-02T03:50:43;8.00;56.70
48589;DHT22;34369;51.174;6.738;2024-03-02T03:53:18;8.10;56.60
48589;DHT22;34369;51.174;6.738;2024-03-02T03:55:50;8.00;56.70
48589;DHT22;34369;51.174;6.738;2024-03-02T03:58:22;8.00;56.70
48589;DHT22;34369;51.174;6.738;2024-03-02T04:00:54;8.00;56.70
48589;DHT22;34369;51.174;6.738;2024-03-02T04:03:27;8.10;56.70
48589;DHT22;34369;51.174;6.738;2024-03-02T04:05:59;8.00;56.70
48589;DHT22;34369;51.174;6.738;2024-03-02T04:08:33;8.00;56.60
48589;DHT22;34369;51.174;6.738;2024-03-02T04:11:05;8.00;56.50
48589;DHT22;34369;51.174;6.738;2024-03-02T04:13:38;8.00;56.50
48589;DHT22;34369;51.174;6.738;2024-03-02T04:16:10;8.00;56.50
48589;DHT22;34369;51.174;6.738;2024-03-02T04:18:42;7.90;56.50
48589;DHT22;34369;51.174;6.738;2024-03-02T04:21:15;7.90;56.50
48589;DHT22;34369;51.174;6.738;2024-03-02T04:23:49;7.80;56.50
48589;DHT22;34369;51.174;6.738;2024-03-02T04:26:22;7.80;56.50
48589;DHT22;34369;51.174;6.738;2024-03-02T04:28:54;7.70;56.60
48589;DHT22;34369;51.174;6.738;2024-03-02T04:31:27;7.70;56.70
48589;DHT22;34369;51.174;6.738;2024-03-02T04:33:59;7.60;56.80
48589;DHT22;34369;51.174;6.738;2024-03-02T04:36:31;7.60;56.90
48589;DHT22;34369;51.174;6.738;2024-03-02T04:39:06;7.50;57.10
48589;DHT22;34369;51.174;6.738;2024-03-02T04:41:41;7.50;57.20
48589;DHT22;34369;51.174;6.738;2024-03-02T04:44:13;7.50;57.30
48589;DHT22;34369;51.174;6.738;2024-03-02T04:46:47;7.50;57.30
48589;DHT22;34369;51.174;6.738;2024-03-02T04:49:19;7.50;57.30
48589;DHT22;34369;51.174;6.738;2024-03-02T04:51:52;7.40;57.30
48589;DHT22;34369;51.174;6.738;2024-03-02T04:54:25;7.40;57.40
48589;DHT22;34369;51.174;6.738;2024-03-02T04:56:57;7.30;57.50
48589;DHT22;34369;51.174;6.738;2024-03-02T04:59:31;7.30;57.50
48589;DHT22;34369;51.174;6.738;2024-03-02T05:02:03;7.20;57.50
48589;DHT22;34369;51.174;6.738;2024-03-02T05:04:36;7.20;57.60
48589;DHT22;34369;51.174;6.738;2024-03-02T05:07:08;7.10;57.70
48589;DHT22;34369;51.174;6.738;2024-03-02T05:09:42;7.10;57.80
48589;DHT22;34369;51.174;6.738;2024-03-02T05:12:15;7.10;57.90
48589;DHT22;34369;51.174;6.738;2024-03-02T05:15:02;7.00;58.00
48589;DHT22;34369;51.174;6.738;2024-03-02T05:17:36;7.00;58.10
48589;DHT22;34369;51.174;6.738;2024-03-02T05:20:09;7.00;58.20
48589;DHT22;34369;51.174;6.738;2024-03-02T05:22:41;7.00;58.20
48589;DHT22;34369;51.174;6.738;2024-03-02T05:25:15;7.00;58.30
48589;DHT22;34369;51.174;6.738;2024-03-02T05:27:47;6.90;58.40
48589;DHT22;34369;51.174;6.738;2024-03-02T05:30:19;6.90;58.40
48589;DHT22;34369;51.174;6.738;2024-03-02T05:32:51;6.90;58.50
48589;DHT22;34369;51.174;6.738;2024-03-02T05:35:23;6.90;58.50
48589;DHT22;34369;51.174;6.738;2024-03-02T05:37:55;6.90;58.60
48589;DHT22;34369;51.174;6.738;2024-03-02T05:40:28;6.90;58.50
48589;DHT22;34369;51.174;6.738;2024-03-02T05:43:00;6.90;58.60
48589;DHT22;34369;51.174;6.738;2024-03-02T05:45:32;6.90;58.70
48589;DHT22;34369;51.174;6.738;2024-03-02T05:48:05;6.80;58.70
48589;DHT22;34369;51.174;6.738;2024-03-02T05:50:38;6.80;58.70
48589;DHT22;34369;51.174;6.738;2024-03-02T05:53:10;6.80;58.80
48589;DHT22;34369;51.174;6.738;2024-03-02T05:55:43;6.70;58.90
48589;DHT22;34369;51.174;6.738;2024-03-02T05:58:16;6.80;59.00
48589;DHT22;34369;51.174;6.738;2024-03-02T06:00:58;6.70;59.00
48589;DHT22;34369;51.174;6.738;2024-03-02T06:03:30;6.70;59.00
48589;DHT22;34369;51.174;6.738;2024-03-02T06:06:02;6.70;59.10
48589;DHT22;34369;51.174;6.738;2024-03-02T06:08:36;6.70;59.10
48589;DHT22;34369;51.174;6.738;2024-03-02T06:11:09;6.70;59.20
48589;DHT22;34369;51.174;6.738;2024-03-02T06:13:41;6.70;59.30
48589;DHT22;34369;51.174;6.738;2024-03-02T06:16:13;6.60;59.30
48589;DHT22;34369;51.174;6.738;2024-03-02T06:18:45;6.70;59.40
48589;DHT22;34369;51.174;6.738;2024-03-02T06:21:17;6.60;59.50
48589;DHT22;34369;51.174;6.738;2024-03-02T06:23:49;6.60;59.60
48589;DHT22;34369;51.174;6.738;2024-03-02T06:26:23;6.60;59.70
48589;DHT22;34369;51.174;6.738;2024-03-02T06:31:25;6.60;59.70
48589;DHT22;34369;51.174;6.738;2024-03-02T06:33:58;6.70;59.80
48589;DHT22;34369;51.174;6.738;2024-03-02T06:36:30;6.60;59.80
48589;DHT22;34369;51.174;6.738;2024-03-02T06:39:03;6.70;59.80
48589;DHT22;34369;51.174;6.738;2024-03-02T06:41:36;6.70;59.80
48589;DHT22;34369;51.174;6.738;2024-03-02T06:44:10;6.70;59.80
48589;DHT22;34369;51.174;6.738;2024-03-02T06:46:43;6.70;59.90
48589;DHT22;34369;51.174;6.738;2024-03-02T06:49:17;6.70;59.90
48589;DHT22;34369;51.174;6.738;2024-03-02T06:51:50;6.70;59.90
48589;DHT22;34369;51.174;6.738;2024-03-02T06:54:22;6.70;59.90
48589;DHT22;34369;51.174;6.738;2024-03-02T06:56:55;6.70;59.90
48589;DHT22;34369;51.174;6.738;2024-03-02T06:59:27;6.70;59.90
48589;DHT22;34369;51.174;6.738;2024-03-02T07:02:04;6.80;59.90
48589;DHT22;34369;51.174;6.738;2024-03-02T07:04:37;6.90;59.90
48589;DHT22;34369;51.174;6.738;2024-03-02T07:07:10;6.90;59.90
48589;DHT22;34369;51.174;6.738;2024-03-02T07:09:42;6.90;59.90
48589;DHT22;34369;51.174;6.738;2024-03-02T07:12:15;6.90;59.90
48589;DHT22;34369;51.174;6.738;2024-03-02T07:14:48;7.00;60.00
48589;DHT22;34369;51.174;6.738;2024-03-02T07:17:43;7.00;59.80
48589;DHT22;34369;51.174;6.738;2024-03-02T07:20:15;7.10;59.90
48589;DHT22;34369;51.174;6.738;2024-03-02T07:22:47;7.20;60.30
48589;DHT22;34369;51.174;6.738;2024-03-02T07:25:20;7.30;60.30
48589;DHT22;34369;51.174;6.738;2024-03-02T07:27:53;7.50;60.60
48589;DHT22;34369;51.174;6.738;2024-03-02T07:30:26;7.60;60.60
48589;DHT22;34369;51.174;6.738;2024-03-02T07:33:01;7.80;60.10
48589;DHT22;34369;51.174;6.738;2024-03-02T07:35:33;8.00;59.50
48589;DHT22;34369;51.174;6.738;2024-03-02T07:38:07;8.20;59.20
48589;DHT22;34369;51.174;6.738;2024-03-02T07:40:39;8.30;59.00
48589;DHT22;34369;51.174;6.738;2024-03-02T07:43:11;8.50;59.10
48589;DHT22;34369;51.174;6.738;2024-03-02T07:45:43;8.60;58.40
48589;DHT22;34369;51.174;6.738;2024-03-02T07:48:17;8.80;58.00
48589;DHT22;34369;51.174;6.738;2024-03-02T07:50:49;8.90;57.60
48589;DHT22;34369;51.174;6.738;2024-03-02T07:53:21;8.90;57.20
48589;DHT22;34369;51.174;6.738;2024-03-02T07:55:54;9.00;56.90
48589;DHT22;34369;51.174;6.738;2024-03-02T07:58:27;9.00;56.70
48589;DHT22;34369;51.174;6.738;2024-03-02T08:01:00;9.00;56.70
48589;DHT22;34369;51.174;6.738;2024-03-02T08:03:35;9.00;56.70
48589;DHT22;34369;51.174;6.738;2024-03-02T08:06:07;9.00;56.70
48589;DHT22;34369;51.174;6.738;2024-03-02T08:08:40;9.20;56.50
48589;DHT22;34369;51.174;6.738;2024-03-02T08:11:12;9.20;57.20
48589;DHT22;34369;51.174;6.738;2024-03-02T08:13:45;9.40;57.40
48589;DHT22;34369;51.174;6.738;2024-03-02T08:16:19;9.50;56.90
48589;DHT22;34369;51.174;6.738;2024-03-02T08:18:54;9.70;56.40
48589;DHT22;34369;51.174;6.738;2024-03-02T08:21:28;10.00;56.30
48589;DHT22;34369;51.174;6.738;2024-03-02T08:24:01;10.20;56.40
48589;DHT22;34369;51.174;6.738;2024-03-02T08:26:34;10.40;56.40
48589;DHT22;34369;51.174;6.738;2024-03-02T08:29:07;10.70;55.70
48589;DHT22;34369;51.174;6.738;2024-03-02T08:31:39;11.00;54.60
48589;DHT22;34369;51.174;6.738;2024-03-02T08:34:13;11.20;53.80
48589;DHT22;34369;51.174;6.738;2024-03-02T08:36:46;11.40;53.20
48589;DHT22;34369;51.174;6.738;2024-03-02T08:39:18;11.40;52.50
48589;DHT22;34369;51.174;6.738;2024-03-02T08:41:52;11.40;52.30
48589;DHT22;34369;51.174;6.738;2024-03-02T08:44:25;11.40;52.20
48589;DHT22;34369;51.174;6.738;2024-03-02T08:46:57;11.40;52.30
48589;DHT22;34369;51.174;6.738;2024-03-02T08:49:32;11.40;52.60
48589;DHT22;34369;51.174;6.738;2024-03-02T08:52:07;11.50;52.60
48589;DHT22;34369;51.174;6.738;2024-03-02T08:54:40;11.60;52.70
48589;DHT22;34369;51.174;6.738;2024-03-02T08:57:13;11.70;52.90
48589;DHT22;34369;51.174;6.738;2024-03-02T08:59:46;11.90;52.90
48589;DHT22;34369;51.174;6.738;2024-03-02T09:02:18;12.10;52.90
48589;DHT22;34369;51.174;6.738;2024-03-02T09:04:52;12.40;52.70
48589;DHT22;34369;51.174;6.738;2024-03-02T09:07:28;12.70;52.20
48589;DHT22;34369;51.174;6.738;2024-03-02T09:10:00;12.90;52.10
48589;DHT22;34369;51.174;6.738;2024-03-02T09:12:34;13.10;51.40
48589;DHT22;34369;51.174;6.738;2024-03-02T09:15:08;13.30;50.90
48589;DHT22;34369;51.174;6.738;2024-03-02T09:17:40;13.50;50.20
48589;DHT22;34369;51.174;6.738;2024-03-02T09:20:14;13.50;49.60
48589;DHT22;34369;51.174;6.738;2024-03-02T09:22:47;13.60;49.30
48589;DHT22;34369;51.174;6.738;2024-03-02T09:25:19;13.60;48.50
48589;DHT22;34369;51.174;6.738;2024-03-02T09:27:51;13.60;48.20
48589;DHT22;34369;51.174;6.738;2024-03-02T09:30:23;13.60;47.70
48589;DHT22;34369;51.174;6.738;2024-03-02T09:32:56;13.60;47.80
48589;DHT22;34369;51.174;6.738;2024-03-02T09:35:29;13.60;48.10
48589;DHT22;34369;51.174;6.738;2024-03-02T09:38:02;13.60;48.10
48589;DHT22;34369;51.174;6.738;2024-03-02T09:40:35;13.60;48.40
48589;DHT22;34369;51.174;6.738;2024-03-02T09:43:08;13.70;48.20
48589;DHT22;34369;51.174;6.738;2024-03-02T09:45:40;13.70;48.10
48589;DHT22;34369;51.174;6.738;2024-03-02T09:48:16;13.80;47.60
48589;DHT22;34369;51.174;6.738;2024-03-02T09:50:50;13.80;47.60
48589;DHT22;34369;51.174;6.738;2024-03-02T09:53:23;13.90;47.20
48589;DHT22;34369;51.174;6.738;2024-03-02T09:55:55;13.90;47.10
48589;DHT22;34369;51.174;6.738;2024-03-02T09:58:29;13.90;47.10
48589;DHT22;34369;51.174;6.738;2024-03-02T10:01:01;13.90;47.00
48589;DHT22;34369;51.174;6.738;2024-03-02T10:03:34;14.00;47.10
48589;DHT22;34369;51.174;6.738;2024-03-02T10:06:23;14.00;47.70
48589;DHT22;34369;51.174;6.738;2024-03-02T10:08:56;14.20;47.10
48589;DHT22;34369;51.174;6.738;2024-03-02T10:11:30;14.40;47.20
48589;DHT22;34369;51.174;6.738;2024-03-02T10:14:07;14.50;46.90
48589;DHT22;34369;51.174;6.738;2024-03-02T10:16:42;14.70;46.40
48589;DHT22;34369;51.174;6.738;2024-03-02T10:19:17;14.80;45.90
48589;DHT22;34369;51.174;6.738;2024-03-02T10:21:53;15.00;46.10
48589;DHT22;34369;51.174;6.738;2024-03-02T10:24:27;15.00;45.90
48589;DHT22;34369;51.174;6.738;2024-03-02T10:26:59;15.20;45.80
48589;DHT22;34369;51.174;6.738;2024-03-02T10:29:31;15.30;45.50
48589;DHT22;34369;51.174;6.738;2024-03-02T10:32:05;15.30;44.90
48589;DHT22;34369;51.174;6.738;2024-03-02T10:34:39;15.30;44.50
48589;DHT22;34369;51.174;6.738;2024-03-02T10:37:14;15.30;44.30
48589;DHT22;34369;51.174;6.738;2024-03-02T10:39:47;15.10;43.90
48589;DHT22;34369;51.174;6.738;2024-03-02T10:42:20;15.00;44.20
48589;DHT22;34369;51.174;6.738;2024-03-02T10:44:53;15.00;44.30
48589;DHT22;34369;51.174;6.738;2024-03-02T10:47:26;14.80;44.10
48589;DHT22;34369;51.174;6.738;2024-03-02T10:50:00;14.70;44.00
48589;DHT22;34369;51.174;6.738;2024-03-02T10:52:36;14.50;44.40
48589;DHT22;34369;51.174;6.738;2024-03-02T10:55:09;14.50;44.30
48589;DHT22;34369;51.174;6.738;2024-03-02T10:57:51;14.40;44.70
48589;DHT22;34369;51.174;6.738;2024-03-02T11:00:33;14.30;44.90
48589;DHT22;34369;51.174;6.738;2024-03-02T11:03:07;14.30;44.70
48589;DHT22;34369;51.174;6.738;2024-03-02T11:05:43;14.30;44.90
48589;DHT22;34369;51.174;6.738;2024-03-02T11:08:18;14.20;44.80
48589;DHT22;34369;51.174;6.738;2024-03-02T11:10:58;14.10;44.60
48589;DHT22;34369;51.174;6.738;2024-03-02T11:13:44;14.10;44.60
48589;DHT22;34369;51.174;6.738;2024-03-02T11:16:33;14.00;44.90
48589;DHT22;34369;51.174;6.738;2024-03-02T11:19:10;14.00;45.40
48589;DHT22;34369;51.174;6.738;2024-03-02T11:21:44;14.00;45.00
48589;DHT22;34369;51.174;6.738;2024-03-02T11:24:36;14.00;45.40
48589;DHT22;34369;51.174;6.738;2024-03-02T11:27:09;14.10;45.60
48589;DHT22;34369;51.174;6.738;2024-03-02T11:29:44;14.20;45.80
48589;DHT22;34369;51.174;6.738;2024-03-02T11:32:19;14.20;45.70
48589;DHT22;34369;51.174;6.738;2024-03-02T11:34:54;14.20;45.90
48589;DHT22;34369;51.174;6.738;2024-03-02T11:37:27;14.30;45.60
48589;DHT22;34369;51.174;6.738;2024-03-02T11:40:01;14.30;45.60
48589;DHT22;34369;51.174;6.738;2024-03-02T11:42:35;14.30;45.50
48589;DHT22;34369;51.174;6.738;2024-03-02T11:45:09;14.30;45.60
48589;DHT22;34369;51.174;6.738;2024-03-02T11:47:46;14.20;45.80
48589;DHT22;34369;51.174;6.738;2024-03-02T11:50:29;14.30;45.50
48589;DHT22;34369;51.174;6.738;2024-03-02T11:53:02;14.30;45.60
48589;DHT22;34369;51.174;6.738;2024-03-02T11:55:40;14.30;45.60
48589;DHT22;34369;51.174;6.738;2024-03-02T11:58:17;14.40;46.10
48589;DHT22;34369;51.174;6.738;2024-03-02T12:00:51;14.50;46.20
48589;DHT22;34369;51.174;6.738;2024-03-02T12:03:25;14.60;45.90
48589;DHT22;34369;51.174;6.738;2024-03-02T12:05:58;14.70;46.00
48589;DHT22;34369;51.174;6.738;2024-03-02T12:08:31;14.90;45.40
48589;DHT22;34369;51.174;6.738;2024-03-02T12:11:05;15.00;44.60
48589;DHT22;34369;51.174;6.738;2024-03-02T12:13:38;15.00;43.90
48589;DHT22;34369;51.174;6.738;2024-03-02T12:16:10;15.00;43.80
48589;DHT22;34369;51.174;6.738;2024-03-02T12:18:43;15.00;44.20
48589;DHT22;34369;51.174;6.738;2024-03-02T12:21:16;15.00;44.20
48589;DHT22;34369;51.174;6.738;2024-03-02T12:23:48;14.90;44.20
48589;DHT22;34369;51.174;6.738;2024-03-02T12:26:23;14.80;44.20
48589;DHT22;34369;51.174;6.738;2024-03-02T12:28:56;14.70;44.00
48589;DHT22;34369;51.174;6.738;2024-03-02T12:31:29;14.70;44.30
48589;DHT22;34369;51.174;6.738;2024-03-02T12:34:03;14.60;44.60
48589;DHT22;34369;51.174;6.738;2024-03-02T12:36:37;14.50;44.50
48589;DHT22;34369;51.174;6.738;2024-03-02T12:39:13;14.50;45.00
48589;DHT22;34369;51.174;6.738;2024-03-02T12:41:46;14.50;44.90
48589;DHT22;34369;51.174;6.738;2024-03-02T12:44:21;14.40;45.10
48589;DHT22;34369;51.174;6.738;2024-03-02T12:46:55;14.40;45.30
48589;DHT22;34369;51.174;6.738;2024-03-02T12:49:27;14.40;45.30
48589;DHT22;34369;51.174;6.738;2024-03-02T12:52:03;14.40;45.20
48589;DHT22;34369;51.174;6.738;2024-03-02T12:54:36;14.30;45.10
48589;DHT22;34369;51.174;6.738;2024-03-02T12:57:17;14.30;45.10
48589;DHT22;34369;51.174;6.738;2024-03-02T12:59:49;14.20;44.90
48589;DHT22;34369;51.174;6.738;2024-03-02T13:02:21;14.20;45.40
48589;DHT22;34369;51.174;6.738;2024-03-02T13:04:54;14.20;45.10
48589;DHT22;34369;51.174;6.738;2024-03-02T13:07:27;14.10;45.20
48589;DHT22;34369;51.174;6.738;2024-03-02T13:10:00;14.10;45.50
48589;DHT22;34369;51.174;6.738;2024-03-02T13:12:35;14.10;45.50
48589;DHT22;34369;51.174;6.738;2024-03-02T13:15:08;14.00;45.80
48589;DHT22;34369;51.174;6.738;2024-03-02T13:17:41;14.00;45.80
48589;DHT22;34369;51.174;6.738;2024-03-02T13:20:15;13.90;45.70
48589;DHT22;34369;51.174;6.738;2024-03-02T13:22:48;13.90;45.80
48589;DHT22;34369;51.174;6.738;2024-03-02T13:25:20;13.90;45.80
48589;DHT22;34369;51.174;6.738;2024-03-02T13:27:54;13.90;46.10
48589;DHT22;34369;51.174;6.738;2024-03-02T13:30:26;13.90;46.10
48589;DHT22;34369;51.174;6.738;2024-03-02T13:32:59;13.80;46.10
48589;DHT22;34369;51.174;6.738;2024-03-02T13:35:33;13.80;46.00
48589;DHT22;34369;51.174;6.738;2024-03-02T13:38:05;13.80;46.20
48589;DHT22;34369;51.174;6.738;2024-03-02T13:40:38;13.80;46.20
48589;DHT22;34369;51.174;6.738;2024-03-02T13:43:12;13.80;46.20
48589;DHT22;34369;51.174;6.738;2024-03-02T13:45:45;13.80;45.90
48589;DHT22;34369;51.174;6.738;2024-03-02T13:48:18;13.80;46.10
48589;DHT22;34369;51.174;6.738;2024-03-02T13:50:51;13.90;46.30
48589;DHT22;34369;51.174;6.738;2024-03-02T13:53:23;13.90;46.10
48589;DHT22;34369;51.174;6.738;2024-03-02T13:55:55;13.90;46.10
48589;DHT22;34369;51.174;6.738;2024-03-02T13:58:29;13.90;46.00
48589;DHT22;34369;51.174;6.738;2024-03-02T14:01:03;14.00;46.30
48589;DHT22;34369;51.174;6.738;2024-03-02T14:03:36;14.00;46.20
48589;DHT22;34369;51.174;6.738;2024-03-02T14:06:08;14.00;46.30
48589;DHT22;34369;51.174;6.738;2024-03-02T14:08:42;14.00;46.30
48589;DHT22;34369;51.174;6.738;2024-03-02T14:11:15;14.00;46.80
48589;DHT22;34369;51.174;6.738;2024-03-02T14:13:49;14.00;46.50
48589;DHT22;34369;51.174;6.738;2024-03-02T14:16:25;14.00;46.40
48589;DHT22;34369;51.174;6.738;2024-03-02T14:18:58;14.00;46.60
48589;DHT22;34369;51.174;6.738;2024-03-02T14:21:30;14.00;46.50
48589;DHT22;34369;51.174;6.738;2024-03-02T14:24:03;14.00;46.80
48589;DHT22;34369;51.174;6.738;2024-03-02T14:26:37;14.10;47.00
48589;DHT22;34369;51.174;6.738;2024-03-02T14:29:13;14.10;46.70
48589;DHT22;34369;51.174;6.738;2024-03-02T14:31:45;14.10;46.50
48589;DHT22;34369;51.174;6.738;2024-03-02T14:34:18;14.10;46.40
48589;DHT22;34369;51.174;6.738;2024-03-02T14:36:50;14.20;46.40
48589;DHT22;34369;51.174;6.738;2024-03-02T14:39:22;14.20;46.30
48589;DHT22;34369;51.174;6.738;2024-03-02T14:41:54;14.20;46.80
48589;DHT22;34369;51.174;6.738;2024-03-02T14:44:32;14.30;46.90
48589;DHT22;34369;51.174;6.738;2024-03-02T14:47:05;14.40;46.60
48589;DHT22;34369;51.174;6.738;2024-03-02T14:49:38;14.50;46.70
48589;DHT22;34369;51.174;6.738;2024-03-02T14:52:11;14.60;46.50
48589;DHT22;34369;51.174;6.738;2024-03-02T14:54:43;14.70;46.20
48589;DHT22;34369;51.174;6.738;2024-03-02T14:57:17;14.80;45.80
48589;DHT22;34369;51.174;6.738;2024-03-02T14:59:51;14.90;45.70
48589;DHT22;34369;51.174;6.738;2024-03-02T15:02:23;15.00;45.40
48589;DHT22;34369;51.174;6.738;2024-03-02T15:04:55;15.00;45.20
48589;DHT22;34369;51.174;6.738;2024-03-02T15:07:28;15.10;45.30
48589;DHT22;34369;51.174;6.738;2024-03-02T15:10:00;15.30;45.10
48589;DHT22;34369;51.174;6.738;2024-03-02T15:12:35;15.30;45.10
48589;DHT22;34369;51.174;6.738;2024-03-02T15:15:09;15.50;44.80
48589;DHT22;34369;51.174;6.738;2024-03-02T15:17:43;15.60;44.10
48589;DHT22;34369;51.174;6.738;2024-03-02T15:20:15;15.60;43.90
48589;DHT22;34369;51.174;6.738;2024-03-02T15:22:47;15.60;43.70
48589;DHT22;34369;51.174;6.738;2024-03-02T15:25:19;15.60;43.50
48589;DHT22;34369;51.174;6.738;2024-03-02T15:27:52;15.60;43.30
48589;DHT22;34369;51.174;6.738;2024-03-02T15:30:26;15.60;43.20
48589;DHT22;34369;51.174;6.738;2024-03-02T15:32:59;15.50;43.30
48589;DHT22;34369;51.174;6.738;2024-03-02T15:35:31;15.50;43.40
48589;DHT22;34369;51.174;6.738;2024-03-02T15:38:03;15.40;43.30
48589;DHT22;34369;51.174;6.738;2024-03-02T15:40:35;15.30;43.40
48589;DHT22;34369;51.174;6.738;2024-03-02T15:43:08;15.30;43.50
48589;DHT22;34369;51.174;6.738;2024-03-02T15:45:41;15.10;43.70
48589;DHT22;34369;51.174;6.738;2024-03-02T15:48:13;15.00;43.50
48589;DHT22;34369;51.174;6.738;2024-03-02T15:50:46;15.00;43.70
48589;DHT22;34369;51.174;6.738;2024-03-02T15:53:18;15.00;43.60
48589;DHT22;34369;51.174;6.738;2024-03-02T15:55:51;14.90;43.60
48589;DHT22;34369;51.174;6.738;2024-03-02T15:58:23;14.90;43.50
48589;DHT22;34369;51.174;6.738;2024-03-02T16:00:57;14.80;43.90
48589;DHT22;34369;51.174;6.738;2024-03-02T16:03:29;14.80;43.90
48589;DHT22;34369;51.174;6.738;2024-03-02T16:06:03;14.80;43.90
48589;DHT22;34369;51.174;6.738;2024-03-02T16:08:36;14.80;44.00
48589;DHT22;34369;51.174;6.738;2024-03-02T16:11:09;14.80;44.00
48589;DHT22;34369;51.174;6.738;2024-03-02T16:13:41;14.80;43.90
48589;DHT22;34369;51.174;6.738;2024-03-02T16:16:15;14.80;43.90
48589;DHT22;34369;51.174;6.738;2024-03-02T16:18:47;14.70;43.80